sensor_id;sensor_type;location;lat;lon;timestamp;P1;durP1;ratioP1;P2;durP2;ratioP2
52530;SDS011;38441;52.894;6.040;2023-06-22T00:48:28;15.02;;;13.43;;
52530;SDS011;38441;52.894;6.040;2023-06-22T00:54:21;16.35;;;14.23;;
52530;SDS011;38441;52.894;6.040;2023-06-22T00:57:48;16.05;;;14.30;;
52530;SDS011;38441;52.894;6.040;2023-06-22T01:01:11;16.50;;;14.77;;
52530;SDS011;38441;52.894;6.040;2023-06-22T01:03:59;16.30;;;13.40;;
52530;SDS011;38441;52.894;6.040;2023-06-22T01:06:51;15.40;;;12.65;;
52530;SDS011;38441;52.894;6.040;2023-06-22T01:10:24;16.20;;;13.23;;
52530;SDS011;38441;52.894;6.040;2023-06-22T01:13:50;13.75;;;11.18;;
52530;SDS011;38441;52.894;6.040;2023-06-22T01:16:57;11.68;;;10.15;;
52530;SDS011;38441;52.894;6.040;2023-06-22T01:26:22;8.60;;;6.60;;
52530;SDS011;38441;52.894;6.040;2023-06-22T01:29:13;7.65;;;5.65;;
52530;SDS011;38441;52.894;6.040;2023-06-22T01:31:55;5.80;;;5.20;;
52530;SDS011;38441;52.894;6.040;2023-06-22T01:34:34;7.25;;;6.40;;
52530;SDS011;38441;52.894;6.040;2023-06-22T01:37:07;8.27;;;5.60;;
52530;SDS011;38441;52.894;6.040;2023-06-22T01:39:46;11.13;;;7.15;;
52530;SDS011;38441;52.894;6.040;2023-06-22T01:45:10;8.55;;;7.10;;
52530;SDS011;38441;52.894;6.040;2023-06-22T01:47:46;9.52;;;7.85;;
52530;SDS011;38441;52.894;6.040;2023-06-22T01:50:19;7.95;;;7.15;;
52530;SDS011;38441;52.894;6.040;2023-06-22T01:55:25;7.82;;;7.03;;
52530;SDS011;38441;52.894;6.040;2023-06-22T01:57:52;8.68;;;7.40;;
52530;SDS011;38441;52.894;6.040;2023-06-22T02:00:19;8.38;;;7.57;;
52530;SDS011;38441;52.894;6.040;2023-06-22T02:03:01;8.02;;;7.15;;
52530;SDS011;38441;52.894;6.040;2023-06-22T02:05:34;8.52;;;7.68;;
52530;SDS011;38441;52.894;6.040;2023-06-22T02:08:11;10.77;;;9.15;;
52530;SDS011;38441;52.894;6.040;2023-06-22T02:10:50;9.55;;;8.55;;
52530;SDS011;38441;52.894;6.040;2023-06-22T02:13:36;9.02;;;7.85;;
52530;SDS011;38441;52.894;6.040;2023-06-22T02:16:12;8.07;;;7.28;;
52530;SDS011;38441;52.894;6.040;2023-06-22T02:21:17;7.45;;;6.35;;
52530;SDS011;38441;52.894;6.040;2023-06-22T02:23:46;7.70;;;6.90;;
52530;SDS011;38441;52.894;6.040;2023-06-22T02:26:13;8.18;;;7.38;;
52530;SDS011;38441;52.894;6.040;2023-06-22T02:28:41;7.95;;;7.13;;
52530;SDS011;38441;52.894;6.040;2023-06-22T02:31:12;9.55;;;7.85;;
52530;SDS011;38441;52.894;6.040;2023-06-22T02:33:41;8.65;;;7.78;;
52530;SDS011;38441;52.894;6.040;2023-06-22T02:36:07;7.93;;;7.00;;
52530;SDS011;38441;52.894;6.040;2023-06-22T02:38:34;9.05;;;8.02;;
52530;SDS011;38441;52.894;6.040;2023-06-22T02:41:01;8.90;;;7.47;;
52530;SDS011;38441;52.894;6.040;2023-06-22T02:43:28;8.80;;;7.93;;
52530;SDS011;38441;52.894;6.040;2023-06-22T02:45:53;9.55;;;8.55;;
52530;SDS011;38441;52.894;6.040;2023-06-22T02:48:20;12.65;;;10.15;;
52530;SDS011;38441;52.894;6.040;2023-06-22T02:50:46;11.13;;;10.00;;
52530;SDS011;38441;52.894;6.040;2023-06-22T02:53:12;10.73;;;8.30;;
52530;SDS011;38441;52.894;6.040;2023-06-22T02:55:38;11.23;;;8.88;;
52530;SDS011;38441;52.894;6.040;2023-06-22T02:58:05;10.32;;;9.05;;
52530;SDS011;38441;52.894;6.040;2023-06-22T03:00:31;10.95;;;9.82;;
52530;SDS011;38441;52.894;6.040;2023-06-22T03:02:57;13.48;;;10.85;;
52530;SDS011;38441;52.894;6.040;2023-06-22T03:05:23;11.25;;;10.13;;
52530;SDS011;38441;52.894;6.040;2023-06-22T03:07:49;12.38;;;9.70;;
52530;SDS011;38441;52.894;6.040;2023-06-22T03:10:16;10.13;;;8.98;;
52530;SDS011;38441;52.894;6.040;2023-06-22T03:12:42;10.77;;;9.27;;
52530;SDS011;38441;52.894;6.040;2023-06-22T03:15:11;12.50;;;10.38;;
52530;SDS011;38441;52.894;6.040;2023-06-22T03:17:37;12.88;;;11.55;;
52530;SDS011;38441;52.894;6.040;2023-06-22T03:20:05;15.02;;;11.27;;
52530;SDS011;38441;52.894;6.040;2023-06-22T03:22:38;12.80;;;11.40;;
52530;SDS011;38441;52.894;6.040;2023-06-22T03:25:06;11.73;;;10.55;;
52530;SDS011;38441;52.894;6.040;2023-06-22T03:27:42;11.73;;;9.95;;
52530;SDS011;38441;52.894;6.040;2023-06-22T03:30:09;10.63;;;9.52;;
52530;SDS011;38441;52.894;6.040;2023-06-22T03:32:36;10.68;;;9.45;;
52530;SDS011;38441;52.894;6.040;2023-06-22T03:35:02;13.70;;;9.88;;
52530;SDS011;38441;52.894;6.040;2023-06-22T03:37:28;16.38;;;9.40;;
52530;SDS011;38441;52.894;6.040;2023-06-22T03:39:55;20.35;;;8.95;;
52530;SDS011;38441;52.894;6.040;2023-06-22T03:42:21;9.10;;;8.30;;
52530;SDS011;38441;52.894;6.040;2023-06-22T03:44:47;17.40;;;7.45;;
52530;SDS011;38441;52.894;6.040;2023-06-22T03:47:13;18.33;;;7.90;;
52530;SDS011;38441;52.894;6.040;2023-06-22T03:49:38;15.80;;;7.65;;
52530;SDS011;38441;52.894;6.040;2023-06-22T03:52:04;18.23;;;7.72;;
52530;SDS011;38441;52.894;6.040;2023-06-22T03:54:30;8.38;;;7.68;;
52530;SDS011;38441;52.894;6.040;2023-06-22T03:56:57;8.38;;;7.63;;
52530;SDS011;38441;52.894;6.040;2023-06-22T03:59:23;12.20;;;8.02;;
52530;SDS011;38441;52.894;6.040;2023-06-22T04:01:49;8.60;;;7.90;;
52530;SDS011;38441;52.894;6.040;2023-06-22T04:04:15;8.90;;;8.10;;
52530;SDS011;38441;52.894;6.040;2023-06-22T04:06:42;10.63;;;9.60;;
52530;SDS011;38441;52.894;6.040;2023-06-22T04:09:07;12.05;;;9.32;;
52530;SDS011;38441;52.894;6.040;2023-06-22T04:11:33;11.50;;;9.15;;
52530;SDS011;38441;52.894;6.040;2023-06-22T04:13:59;16.52;;;9.63;;
52530;SDS011;38441;52.894;6.040;2023-06-22T04:16:25;10.43;;;9.40;;
52530;SDS011;38441;52.894;6.040;2023-06-22T04:18:50;22.17;;;10.88;;
52530;SDS011;38441;52.894;6.040;2023-06-22T04:21:16;11.15;;;10.15;;
52530;SDS011;38441;52.894;6.040;2023-06-22T04:23:42;15.27;;;10.50;;
52530;SDS011;38441;52.894;6.040;2023-06-22T04:26:08;23.30;;;11.18;;
52530;SDS011;38441;52.894;6.040;2023-06-22T04:28:34;17.98;;;12.75;;
52530;SDS011;38441;52.894;6.040;2023-06-22T04:31:02;15.02;;;12.32;;
52530;SDS011;38441;52.894;6.040;2023-06-22T04:33:30;17.02;;;12.27;;
52530;SDS011;38441;52.894;6.040;2023-06-22T04:35:58;16.55;;;13.77;;
52530;SDS011;38441;52.894;6.040;2023-06-22T04:38:27;18.95;;;14.32;;
52530;SDS011;38441;52.894;6.040;2023-06-22T04:40:53;27.17;;;15.32;;
52530;SDS011;38441;52.894;6.040;2023-06-22T04:43:19;15.27;;;13.77;;
52530;SDS011;38441;52.894;6.040;2023-06-22T04:45:45;17.25;;;13.57;;
52530;SDS011;38441;52.894;6.040;2023-06-22T04:48:10;15.38;;;13.85;;
52530;SDS011;38441;52.894;6.040;2023-06-22T04:50:41;16.27;;;14.55;;
52530;SDS011;38441;52.894;6.040;2023-06-22T04:53:07;16.95;;;15.15;;
52530;SDS011;38441;52.894;6.040;2023-06-22T04:55:34;16.20;;;14.38;;
52530;SDS011;38441;52.894;6.040;2023-06-22T04:58:03;18.70;;;15.23;;
52530;SDS011;38441;52.894;6.040;2023-06-22T05:00:30;16.10;;;14.40;;
52530;SDS011;38441;52.894;6.040;2023-06-22T05:02:56;18.20;;;16.33;;
52530;SDS011;38441;52.894;6.040;2023-06-22T05:05:23;18.52;;;16.63;;
52530;SDS011;38441;52.894;6.040;2023-06-22T05:07:49;17.00;;;15.02;;
52530;SDS011;38441;52.894;6.040;2023-06-22T05:10:18;20.73;;;17.20;;
52530;SDS011;38441;52.894;6.040;2023-06-22T05:12:44;20.30;;;18.10;;
52530;SDS011;38441;52.894;6.040;2023-06-22T05:15:10;20.88;;;17.58;;
52530;SDS011;38441;52.894;6.040;2023-06-22T05:17:36;21.23;;;16.80;;
52530;SDS011;38441;52.894;6.040;2023-06-22T05:20:08;21.23;;;17.45;;
52530;SDS011;38441;52.894;6.040;2023-06-22T05:22:37;22.10;;;17.77;;
52530;SDS011;38441;52.894;6.040;2023-06-22T05:25:07;22.85;;;18.48;;
52530;SDS011;38441;52.894;6.040;2023-06-22T05:27:34;24.20;;;19.35;;
52530;SDS011;38441;52.894;6.040;2023-06-22T05:30:04;22.55;;;19.17;;
52530;SDS011;38441;52.894;6.040;2023-06-22T05:32:34;23.85;;;19.60;;
52530;SDS011;38441;52.894;6.040;2023-06-22T05:35:00;24.15;;;19.42;;
52530;SDS011;38441;52.894;6.040;2023-06-22T05:37:26;23.70;;;18.98;;
52530;SDS011;38441;52.894;6.040;2023-06-22T05:39:53;27.92;;;21.20;;
52530;SDS011;38441;52.894;6.040;2023-06-22T05:42:20;24.95;;;21.35;;
52530;SDS011;38441;52.894;6.040;2023-06-22T05:44:46;26.35;;;21.75;;
52530;SDS011;38441;52.894;6.040;2023-06-22T05:47:12;25.40;;;21.40;;
52530;SDS011;38441;52.894;6.040;2023-06-22T05:49:38;24.58;;;20.33;;
52530;SDS011;38441;52.894;6.040;2023-06-22T05:52:03;27.10;;;22.00;;
52530;SDS011;38441;52.894;6.040;2023-06-22T05:54:29;25.73;;;20.27;;
52530;SDS011;38441;52.894;6.040;2023-06-22T05:56:55;31.25;;;21.90;;
52530;SDS011;38441;52.894;6.040;2023-06-22T05:59:21;24.33;;;20.08;;
52530;SDS011;38441;52.894;6.040;2023-06-22T06:01:47;26.27;;;21.25;;
52530;SDS011;38441;52.894;6.040;2023-06-22T06:04:18;25.25;;;20.77;;
52530;SDS011;38441;52.894;6.040;2023-06-22T06:06:44;23.55;;;19.77;;
52530;SDS011;38441;52.894;6.040;2023-06-22T06:09:12;25.35;;;21.45;;
52530;SDS011;38441;52.894;6.040;2023-06-22T06:11:38;25.52;;;20.95;;
52530;SDS011;38441;52.894;6.040;2023-06-22T06:14:04;25.73;;;21.63;;
52530;SDS011;38441;52.894;6.040;2023-06-22T06:16:30;24.63;;;21.00;;
52530;SDS011;38441;52.894;6.040;2023-06-22T06:18:56;29.65;;;22.65;;
52530;SDS011;38441;52.894;6.040;2023-06-22T06:21:23;24.00;;;21.10;;
52530;SDS011;38441;52.894;6.040;2023-06-22T06:23:49;23.02;;;20.45;;
52530;SDS011;38441;52.894;6.040;2023-06-22T06:26:15;24.15;;;20.23;;
52530;SDS011;38441;52.894;6.040;2023-06-22T06:28:53;23.50;;;20.95;;
52530;SDS011;38441;52.894;6.040;2023-06-22T06:31:19;23.35;;;20.25;;
52530;SDS011;38441;52.894;6.040;2023-06-22T06:33:46;24.63;;;20.05;;
52530;SDS011;38441;52.894;6.040;2023-06-22T06:38:49;21.70;;;18.75;;
52530;SDS011;38441;52.894;6.040;2023-06-22T06:41:16;22.02;;;17.90;;
52530;SDS011;38441;52.894;6.040;2023-06-22T06:43:42;21.58;;;17.77;;
52530;SDS011;38441;52.894;6.040;2023-06-22T06:46:08;18.92;;;16.60;;
52530;SDS011;38441;52.894;6.040;2023-06-22T06:48:34;19.13;;;17.10;;
52530;SDS011;38441;52.894;6.040;2023-06-22T06:51:00;18.48;;;15.88;;
52530;SDS011;38441;52.894;6.040;2023-06-22T06:53:30;18.55;;;16.52;;
52530;SDS011;38441;52.894;6.040;2023-06-22T06:55:57;17.85;;;15.95;;
52530;SDS011;38441;52.894;6.040;2023-06-22T06:58:23;16.77;;;14.70;;
52530;SDS011;38441;52.894;6.040;2023-06-22T07:00:49;16.35;;;14.65;;
52530;SDS011;38441;52.894;6.040;2023-06-22T07:03:15;17.75;;;14.63;;
52530;SDS011;38441;52.894;6.040;2023-06-22T07:05:43;19.77;;;14.40;;
52530;SDS011;38441;52.894;6.040;2023-06-22T07:08:09;14.93;;;12.68;;
52530;SDS011;38441;52.894;6.040;2023-06-22T07:10:39;19.98;;;13.73;;
52530;SDS011;38441;52.894;6.040;2023-06-22T07:13:08;17.08;;;13.98;;
52530;SDS011;38441;52.894;6.040;2023-06-22T07:15:37;15.98;;;13.15;;
52530;SDS011;38441;52.894;6.040;2023-06-22T07:18:03;16.88;;;12.63;;
52530;SDS011;38441;52.894;6.040;2023-06-22T07:23:04;14.25;;;12.05;;
52530;SDS011;38441;52.894;6.040;2023-06-22T07:25:31;12.65;;;11.32;;
52530;SDS011;38441;52.894;6.040;2023-06-22T07:27:58;14.00;;;11.60;;
52530;SDS011;38441;52.894;6.040;2023-06-22T07:30:27;15.18;;;11.77;;
52530;SDS011;38441;52.894;6.040;2023-06-22T07:32:57;14.95;;;12.43;;
52530;SDS011;38441;52.894;6.040;2023-06-22T07:35:24;13.27;;;11.88;;
52530;SDS011;38441;52.894;6.040;2023-06-22T07:37:50;16.25;;;12.27;;
52530;SDS011;38441;52.894;6.040;2023-06-22T07:40:20;14.90;;;11.75;;
52530;SDS011;38441;52.894;6.040;2023-06-22T07:42:50;16.73;;;12.18;;
52530;SDS011;38441;52.894;6.040;2023-06-22T07:45:17;16.17;;;11.90;;
52530;SDS011;38441;52.894;6.040;2023-06-22T07:47:43;13.63;;;11.10;;
52530;SDS011;38441;52.894;6.040;2023-06-22T07:50:10;15.35;;;10.95;;
52530;SDS011;38441;52.894;6.040;2023-06-22T07:52:36;16.23;;;12.13;;
52530;SDS011;38441;52.894;6.040;2023-06-22T07:55:04;16.55;;;12.70;;
52530;SDS011;38441;52.894;6.040;2023-06-22T08:00:17;15.75;;;11.77;;
52530;SDS011;38441;52.894;6.040;2023-06-22T08:02:49;17.48;;;13.68;;
52530;SDS011;38441;52.894;6.040;2023-06-22T08:05:15;16.42;;;12.32;;
52530;SDS011;38441;52.894;6.040;2023-06-22T08:07:42;20.25;;;12.35;;
52530;SDS011;38441;52.894;6.040;2023-06-22T08:15:25;14.75;;;11.68;;
52530;SDS011;38441;52.894;6.040;2023-06-22T08:20:27;15.30;;;12.55;;
52530;SDS011;38441;52.894;6.040;2023-06-22T08:23:07;15.35;;;12.70;;
52530;SDS011;38441;52.894;6.040;2023-06-22T08:25:33;20.38;;;13.15;;
52530;SDS011;38441;52.894;6.040;2023-06-22T08:28:00;15.00;;;11.57;;
52530;SDS011;38441;52.894;6.040;2023-06-22T08:30:29;14.88;;;10.95;;
52530;SDS011;38441;52.894;6.040;2023-06-22T08:32:55;15.07;;;11.35;;
52530;SDS011;38441;52.894;6.040;2023-06-22T08:35:24;14.13;;;11.40;;
52530;SDS011;38441;52.894;6.040;2023-06-22T08:37:50;17.02;;;11.57;;
52530;SDS011;38441;52.894;6.040;2023-06-22T08:42:48;17.95;;;10.27;;
52530;SDS011;38441;52.894;6.040;2023-06-22T08:45:14;12.48;;;10.35;;
52530;SDS011;38441;52.894;6.040;2023-06-22T08:47:40;15.00;;;10.30;;
52530;SDS011;38441;52.894;6.040;2023-06-22T08:50:07;15.68;;;9.75;;
52530;SDS011;38441;52.894;6.040;2023-06-22T08:52:36;14.13;;;10.52;;
52530;SDS011;38441;52.894;6.040;2023-06-22T08:55:06;13.50;;;9.75;;
52530;SDS011;38441;52.894;6.040;2023-06-22T08:57:44;13.52;;;9.40;;
52530;SDS011;38441;52.894;6.040;2023-06-22T09:00:09;14.90;;;9.57;;
52530;SDS011;38441;52.894;6.040;2023-06-22T09:02:46;12.65;;;9.23;;
52530;SDS011;38441;52.894;6.040;2023-06-22T09:05:12;15.13;;;9.63;;
52530;SDS011;38441;52.894;6.040;2023-06-22T09:07:38;11.48;;;8.38;;
52530;SDS011;38441;52.894;6.040;2023-06-22T09:10:04;11.25;;;8.80;;
52530;SDS011;38441;52.894;6.040;2023-06-22T09:12:31;13.00;;;8.57;;
52530;SDS011;38441;52.894;6.040;2023-06-22T09:14:58;11.77;;;9.18;;
52530;SDS011;38441;52.894;6.040;2023-06-22T09:17:27;12.95;;;9.13;;
52530;SDS011;38441;52.894;6.040;2023-06-22T09:19:53;11.20;;;8.25;;
52530;SDS011;38441;52.894;6.040;2023-06-22T09:22:19;11.27;;;7.75;;
52530;SDS011;38441;52.894;6.040;2023-06-22T09:24:45;13.13;;;9.43;;
52530;SDS011;38441;52.894;6.040;2023-06-22T09:29:46;12.98;;;7.75;;
52530;SDS011;38441;52.894;6.040;2023-06-22T09:32:13;15.75;;;7.68;;
52530;SDS011;38441;52.894;6.040;2023-06-22T09:34:39;9.63;;;7.45;;
52530;SDS011;38441;52.894;6.040;2023-06-22T09:37:07;11.90;;;7.43;;
52530;SDS011;38441;52.894;6.040;2023-06-22T09:39:39;11.13;;;7.05;;
52530;SDS011;38441;52.894;6.040;2023-06-22T09:44:42;11.15;;;7.53;;
52530;SDS011;38441;52.894;6.040;2023-06-22T09:47:08;9.48;;;6.75;;
52530;SDS011;38441;52.894;6.040;2023-06-22T09:49:34;10.10;;;5.93;;
52530;SDS011;38441;52.894;6.040;2023-06-22T09:54:35;10.48;;;7.10;;
52530;SDS011;38441;52.894;6.040;2023-06-22T09:57:00;10.35;;;6.80;;
52530;SDS011;38441;52.894;6.040;2023-06-22T09:59:49;11.80;;;6.72;;
52530;SDS011;38441;52.894;6.040;2023-06-22T10:02:16;14.18;;;6.80;;
52530;SDS011;38441;52.894;6.040;2023-06-22T10:04:42;17.30;;;6.78;;
52530;SDS011;38441;52.894;6.040;2023-06-22T10:09:43;9.23;;;5.72;;
52530;SDS011;38441;52.894;6.040;2023-06-22T10:12:09;10.68;;;5.63;;
52530;SDS011;38441;52.894;6.040;2023-06-22T10:14:35;8.00;;;5.75;;
52530;SDS011;38441;52.894;6.040;2023-06-22T10:17:02;8.27;;;6.00;;
52530;SDS011;38441;52.894;6.040;2023-06-22T10:19:32;11.93;;;6.28;;
52530;SDS011;38441;52.894;6.040;2023-06-22T10:21:57;10.50;;;6.72;;
52530;SDS011;38441;52.894;6.040;2023-06-22T10:24:24;8.20;;;6.03;;
52530;SDS011;38441;52.894;6.040;2023-06-22T10:35:28;7.88;;;5.55;;
52530;SDS011;38441;52.894;6.040;2023-06-22T10:40:29;7.63;;;4.82;;
52530;SDS011;38441;52.894;6.040;2023-06-22T10:43:03;9.68;;;4.07;;
52530;SDS011;38441;52.894;6.040;2023-06-22T10:45:40;6.07;;;4.03;;
52530;SDS011;38441;52.894;6.040;2023-06-22T10:53:22;6.03;;;3.88;;
52530;SDS011;38441;52.894;6.040;2023-06-22T10:56:11;6.20;;;4.25;;
52530;SDS011;38441;52.894;6.040;2023-06-22T10:58:41;5.32;;;3.55;;
52530;SDS011;38441;52.894;6.040;2023-06-22T11:01:16;5.88;;;3.58;;
52530;SDS011;38441;52.894;6.040;2023-06-22T11:03:52;4.53;;;2.97;;
52530;SDS011;38441;52.894;6.040;2023-06-22T11:06:40;4.70;;;3.53;;
52530;SDS011;38441;52.894;6.040;2023-06-22T11:09:06;6.13;;;3.80;;
52530;SDS011;38441;52.894;6.040;2023-06-22T11:11:53;6.00;;;3.58;;
52530;SDS011;38441;52.894;6.040;2023-06-22T11:17:48;6.50;;;3.90;;
52530;SDS011;38441;52.894;6.040;2023-06-22T11:20:28;6.60;;;4.35;;
52530;SDS011;38441;52.894;6.040;2023-06-22T11:23:02;6.93;;;3.42;;
52530;SDS011;38441;52.894;6.040;2023-06-22T11:25:30;5.88;;;3.75;;
52530;SDS011;38441;52.894;6.040;2023-06-22T11:28:58;5.60;;;4.10;;
52530;SDS011;38441;52.894;6.040;2023-06-22T11:36:09;5.47;;;3.60;;
52530;SDS011;38441;52.894;6.040;2023-06-22T11:38:57;6.88;;;4.38;;
52530;SDS011;38441;52.894;6.040;2023-06-22T11:41:58;6.25;;;3.53;;
52530;SDS011;38441;52.894;6.040;2023-06-22T11:44:32;6.35;;;3.20;;
52530;SDS011;38441;52.894;6.040;2023-06-22T11:51:42;8.38;;;3.35;;
52530;SDS011;38441;52.894;6.040;2023-06-22T12:01:25;7.25;;;3.65;;
52530;SDS011;38441;52.894;6.040;2023-06-22T12:04:02;7.32;;;3.70;;
52530;SDS011;38441;52.894;6.040;2023-06-22T12:10:07;8.40;;;3.10;;
52530;SDS011;38441;52.894;6.040;2023-06-22T12:13:39;6.43;;;3.45;;
52530;SDS011;38441;52.894;6.040;2023-06-22T12:19:49;4.95;;;2.92;;
52530;SDS011;38441;52.894;6.040;2023-06-22T12:22:38;5.95;;;3.33;;
52530;SDS011;38441;52.894;6.040;2023-06-22T12:25:33;6.50;;;3.80;;
52530;SDS011;38441;52.894;6.040;2023-06-22T12:31:16;5.72;;;3.38;;
52530;SDS011;38441;52.894;6.040;2023-06-22T12:37:40;7.22;;;3.42;;
52530;SDS011;38441;52.894;6.040;2023-06-22T12:40:12;6.85;;;3.30;;
52530;SDS011;38441;52.894;6.040;2023-06-22T13:04:32;6.07;;;4.10;;
52530;SDS011;38441;52.894;6.040;2023-06-22T13:09:55;6.03;;;3.63;;
52530;SDS011;38441;52.894;6.040;2023-06-22T13:19:46;5.03;;;3.10;;
52530;SDS011;38441;52.894;6.040;2023-06-22T13:24:50;6.88;;;3.78;;
52530;SDS011;38441;52.894;6.040;2023-06-22T13:27:16;6.68;;;4.93;;
52530;SDS011;38441;52.894;6.040;2023-06-22T13:29:41;7.82;;;4.78;;
52530;SDS011;38441;52.894;6.040;2023-06-22T13:37:25;7.95;;;5.40;;
52530;SDS011;38441;52.894;6.040;2023-06-22T13:48:47;7.45;;;4.15;;
52530;SDS011;38441;52.894;6.040;2023-06-22T13:51:12;6.55;;;4.32;;
52530;SDS011;38441;52.894;6.040;2023-06-22T13:53:38;7.35;;;4.95;;
52530;SDS011;38441;52.894;6.040;2023-06-22T13:56:11;8.70;;;6.03;;
52530;SDS011;38441;52.894;6.040;2023-06-22T13:58:37;10.15;;;6.57;;
52530;SDS011;38441;52.894;6.040;2023-06-22T14:01:12;11.02;;;7.18;;
52530;SDS011;38441;52.894;6.040;2023-06-22T14:03:40;9.20;;;7.03;;
52530;SDS011;38441;52.894;6.040;2023-06-22T14:06:08;10.02;;;7.30;;
52530;SDS011;38441;52.894;6.040;2023-06-22T14:08:36;10.00;;;7.15;;
52530;SDS011;38441;52.894;6.040;2023-06-22T14:11:02;9.27;;;6.50;;
52530;SDS011;38441;52.894;6.040;2023-06-22T14:13:31;8.52;;;6.82;;
52530;SDS011;38441;52.894;6.040;2023-06-22T14:15:57;10.27;;;6.82;;
52530;SDS011;38441;52.894;6.040;2023-06-22T14:18:25;11.23;;;7.35;;
52530;SDS011;38441;52.894;6.040;2023-06-22T14:20:50;8.65;;;6.25;;
52530;SDS011;38441;52.894;6.040;2023-06-22T14:23:16;9.10;;;6.78;;
52530;SDS011;38441;52.894;6.040;2023-06-22T14:25:49;9.25;;;6.85;;
52530;SDS011;38441;52.894;6.040;2023-06-22T14:28:15;9.13;;;6.30;;
52530;SDS011;38441;52.894;6.040;2023-06-22T14:30:41;10.77;;;6.20;;
52530;SDS011;38441;52.894;6.040;2023-06-22T14:33:24;7.97;;;5.75;;
52530;SDS011;38441;52.894;6.040;2023-06-22T14:35:52;8.38;;;5.50;;
52530;SDS011;38441;52.894;6.040;2023-06-22T14:38:21;8.75;;;6.03;;
52530;SDS011;38441;52.894;6.040;2023-06-22T14:40:54;9.65;;;5.80;;
52530;SDS011;38441;52.894;6.040;2023-06-22T14:43:20;8.65;;;5.70;;
52530;SDS011;38441;52.894;6.040;2023-06-22T14:45:50;9.57;;;5.87;;
52530;SDS011;38441;52.894;6.040;2023-06-22T14:48:15;10.55;;;5.38;;
52530;SDS011;38441;52.894;6.040;2023-06-22T14:50:50;7.60;;;5.55;;
52530;SDS011;38441;52.894;6.040;2023-06-22T14:53:16;8.38;;;5.45;;
52530;SDS011;38441;52.894;6.040;2023-06-22T14:55:41;9.15;;;5.45;;
52530;SDS011;38441;52.894;6.040;2023-06-22T14:58:09;8.43;;;5.53;;
52530;SDS011;38441;52.894;6.040;2023-06-22T15:00:43;6.60;;;4.90;;
52530;SDS011;38441;52.894;6.040;2023-06-22T15:03:08;8.98;;;4.93;;
52530;SDS011;38441;52.894;6.040;2023-06-22T15:05:49;8.20;;;4.82;;
52530;SDS011;38441;52.894;6.040;2023-06-22T15:08:17;7.05;;;5.15;;
52530;SDS011;38441;52.894;6.040;2023-06-22T15:10:42;9.15;;;5.43;;
52530;SDS011;38441;52.894;6.040;2023-06-22T15:13:08;7.35;;;4.90;;
52530;SDS011;38441;52.894;6.040;2023-06-22T15:15:39;7.18;;;5.07;;
52530;SDS011;38441;52.894;6.040;2023-06-22T15:23:23;7.35;;;4.22;;
52530;SDS011;38441;52.894;6.040;2023-06-22T15:25:51;4.60;;;3.35;;
52530;SDS011;38441;52.894;6.040;2023-06-22T15:28:45;6.88;;;3.88;;
52530;SDS011;38441;52.894;6.040;2023-06-22T15:31:11;6.07;;;3.20;;
52530;SDS011;38441;52.894;6.040;2023-06-22T15:33:36;7.05;;;3.60;;
52530;SDS011;38441;52.894;6.040;2023-06-22T15:36:13;6.28;;;3.53;;
52530;SDS011;38441;52.894;6.040;2023-06-22T15:49:02;7.05;;;3.60;;
52530;SDS011;38441;52.894;6.040;2023-06-22T15:51:28;7.30;;;2.70;;
52530;SDS011;38441;52.894;6.040;2023-06-22T15:59:11;5.32;;;3.08;;
52530;SDS011;38441;52.894;6.040;2023-06-22T16:01:57;6.07;;;2.70;;
52530;SDS011;38441;52.894;6.040;2023-06-22T16:04:34;3.47;;;2.00;;
52530;SDS011;38441;52.894;6.040;2023-06-22T16:07:08;4.05;;;2.28;;
52530;SDS011;38441;52.894;6.040;2023-06-22T16:09:53;4.90;;;2.40;;
52530;SDS011;38441;52.894;6.040;2023-06-22T16:12:21;4.10;;;2.22;;
52530;SDS011;38441;52.894;6.040;2023-06-22T16:14:56;6.05;;;2.17;;
52530;SDS011;38441;52.894;6.040;2023-06-22T16:17:22;2.95;;;1.80;;
52530;SDS011;38441;52.894;6.040;2023-06-22T16:19:52;6.40;;;1.75;;
52530;SDS011;38441;52.894;6.040;2023-06-22T16:22:22;4.95;;;2.08;;
52530;SDS011;38441;52.894;6.040;2023-06-22T16:24:51;3.65;;;1.80;;
52530;SDS011;38441;52.894;6.040;2023-06-22T16:27:20;3.70;;;1.90;;
52530;SDS011;38441;52.894;6.040;2023-06-22T16:29:55;4.75;;;1.90;;
52530;SDS011;38441;52.894;6.040;2023-06-22T16:36:10;5.28;;;1.45;;
52530;SDS011;38441;52.894;6.040;2023-06-22T16:38:46;4.25;;;1.17;;
52530;SDS011;38441;52.894;6.040;2023-06-22T16:41:17;3.70;;;1.48;;
52530;SDS011;38441;52.894;6.040;2023-06-22T16:44:01;2.65;;;1.38;;
52530;SDS011;38441;52.894;6.040;2023-06-22T16:46:48;3.63;;;1.33;;
52530;SDS011;38441;52.894;6.040;2023-06-22T16:49:47;2.70;;;1.23;;
52530;SDS011;38441;52.894;6.040;2023-06-22T16:52:16;4.63;;;1.58;;
52530;SDS011;38441;52.894;6.040;2023-06-22T16:54:45;3.17;;;1.42;;
52530;SDS011;38441;52.894;6.040;2023-06-22T16:57:16;4.32;;;1.67;;
52530;SDS011;38441;52.894;6.040;2023-06-22T16:59:45;3.63;;;1.40;;
52530;SDS011;38441;52.894;6.040;2023-06-22T17:02:15;2.13;;;1.20;;
52530;SDS011;38441;52.894;6.040;2023-06-22T17:07:21;4.55;;;1.67;;
52530;SDS011;38441;52.894;6.040;2023-06-22T17:09:50;2.95;;;0.90;;
52530;SDS011;38441;52.894;6.040;2023-06-22T17:12:23;2.50;;;1.08;;
52530;SDS011;38441;52.894;6.040;2023-06-22T17:14:52;1.88;;;1.05;;
52530;SDS011;38441;52.894;6.040;2023-06-22T17:17:19;2.78;;;0.95;;
52530;SDS011;38441;52.894;6.040;2023-06-22T17:19:50;2.72;;;1.23;;
52530;SDS011;38441;52.894;6.040;2023-06-22T17:22:16;3.72;;;1.10;;
52530;SDS011;38441;52.894;6.040;2023-06-22T17:24:42;1.77;;;0.90;;
52530;SDS011;38441;52.894;6.040;2023-06-22T17:27:16;2.28;;;1.10;;
52530;SDS011;38441;52.894;6.040;2023-06-22T17:30:02;4.78;;;1.23;;
52530;SDS011;38441;52.894;6.040;2023-06-22T17:32:29;2.55;;;0.95;;
52530;SDS011;38441;52.894;6.040;2023-06-22T17:34:55;2.05;;;0.80;;
52530;SDS011;38441;52.894;6.040;2023-06-22T17:37:24;3.03;;;1.10;;
52530;SDS011;38441;52.894;6.040;2023-06-22T17:39:52;1.75;;;0.80;;
52530;SDS011;38441;52.894;6.040;2023-06-22T17:42:21;3.13;;;1.13;;
52530;SDS011;38441;52.894;6.040;2023-06-22T17:44:48;5.90;;;1.33;;
52530;SDS011;38441;52.894;6.040;2023-06-22T17:47:25;3.42;;;1.40;;
52530;SDS011;38441;52.894;6.040;2023-06-22T17:50:03;3.60;;;1.35;;
52530;SDS011;38441;52.894;6.040;2023-06-22T17:52:33;2.30;;;1.10;;
52530;SDS011;38441;52.894;6.040;2023-06-22T17:55:01;3.88;;;1.25;;
52530;SDS011;38441;52.894;6.040;2023-06-22T17:57:44;4.63;;;1.27;;
52530;SDS011;38441;52.894;6.040;2023-06-22T18:00:15;5.05;;;1.70;;
52530;SDS011;38441;52.894;6.040;2023-06-22T18:02:47;3.92;;;1.92;;
52530;SDS011;38441;52.894;6.040;2023-06-22T18:05:14;2.93;;;1.57;;
52530;SDS011;38441;52.894;6.040;2023-06-22T18:08:05;2.42;;;1.20;;
52530;SDS011;38441;52.894;6.040;2023-06-22T18:10:36;4.55;;;1.98;;
52530;SDS011;38441;52.894;6.040;2023-06-22T18:13:05;5.63;;;2.17;;
52530;SDS011;38441;52.894;6.040;2023-06-22T18:15:40;11.52;;;2.08;;
52530;SDS011;38441;52.894;6.040;2023-06-22T18:18:09;5.45;;;2.13;;
52530;SDS011;38441;52.894;6.040;2023-06-22T18:23:14;4.60;;;2.35;;
52530;SDS011;38441;52.894;6.040;2023-06-22T18:25:45;5.30;;;2.05;;
52530;SDS011;38441;52.894;6.040;2023-06-22T18:28:28;4.57;;;2.10;;
52530;SDS011;38441;52.894;6.040;2023-06-22T18:31:03;5.18;;;2.03;;
52530;SDS011;38441;52.894;6.040;2023-06-22T18:33:32;8.02;;;2.60;;
52530;SDS011;38441;52.894;6.040;2023-06-22T18:36:02;4.63;;;2.65;;
52530;SDS011;38441;52.894;6.040;2023-06-22T18:38:32;4.35;;;1.85;;
52530;SDS011;38441;52.894;6.040;2023-06-22T18:41:36;4.65;;;2.78;;